createdAt,value
2019-05-14T00:00:00.030Z,0.0000013744269475604859
2019-05-14T00:00:18.584Z,0.0000013744269475604859
2019-05-14T00:00:43.219Z,0.000001374287736890217
2019-05-14T00:01:02.804Z,0.000001374287736890217
2019-05-14T00:01:22.109Z,0.0000013549315715819047
2019-05-14T00:01:42.169Z,0.000001364609654236061
2019-05-14T00:01:58.554Z,9.097397694907073e-7
2019-05-14T00:02:18.544Z,9.159841612588165e-7
2019-05-14T00:02:41.275Z,9.160769379387778e-7
2019-05-14T00:02:59.181Z,9.160769379387778e-7
2019-05-14T00:03:21.888Z,9.225281839806003e-7
2019-05-14T00:03:41.301Z,0.0000013933280199429884
2019-05-14T00:04:02.053Z,0.0000013933280199429884
2019-05-14T00:04:22.002Z,0.0000013836521309156064
2019-05-14T00:04:38.551Z,0.0000013739762418882244
2019-05-14T00:05:01.659Z,0.0000013739762418882244
2019-05-14T00:05:18.543Z,0.0000013643003528608426
2019-05-14T00:05:42.285Z,0.0000013638531145874903
2019-05-14T00:06:02.202Z,0.0000013638531145874903
2019-05-14T00:06:21.860Z,0.000001373386712312679
2019-05-14T00:06:38.542Z,0.000001373386712312679
2019-05-14T00:07:01.017Z,0.000001373386712312679
2019-05-14T00:07:21.728Z,0.000001373386712312679
2019-05-14T00:07:38.515Z,0.000001373386712312679
2019-05-14T00:08:02.224Z,0.000001373386712312679
2019-05-14T00:08:22.085Z,0.0000013637149749020266
2019-05-14T00:08:41.283Z,0.000001344507680338023
2019-05-14T00:09:01.374Z,0.000001344507680338023
2019-05-14T00:09:21.492Z,0.0000013543175574341395
2019-05-14T00:09:38.519Z,9.157766340745134e-7
2019-05-14T00:10:01.174Z,9.157766340745134e-7
2019-05-14T00:10:18.566Z,9.154765270340169e-7
2019-05-14T00:10:38.558Z,4.5773826351700844e-7
2019-05-14T00:10:58.537Z,4.5773826351700844e-7
2019-05-14T00:11:21.763Z,4.5451475461900146e-7
2019-05-14T00:11:42.037Z,4.5451475461900146e-7
2019-05-14T00:12:02.555Z,4.5451475461900146e-7
2019-05-14T00:12:18.531Z,4.5773826351700844e-7
2019-05-14T00:12:41.814Z,9.089374462939844e-7
2019-05-14T00:13:01.163Z,9.089374462939844e-7
2019-05-14T00:13:21.416Z,9.024910814266513e-7
2019-05-14T00:13:38.542Z,9.089374462939844e-7
2019-05-14T00:14:01.257Z,9.089374462939844e-7
2019-05-14T00:14:19.285Z,9.086396780888104e-7
2019-05-14T00:14:51.081Z,2.2250738585072014e-308
2019-05-14T00:14:58.536Z,2.2250738585072014e-308
2019-05-14T00:15:18.561Z,2.2250738585072014e-308
2019-05-14T00:15:41.399Z,2.2250738585072014e-308
2019-05-14T00:15:58.538Z,2.2250738585072014e-308
2019-05-14T00:16:23.692Z,2.2250738585072014e-308
2019-05-14T00:16:39.265Z,2.2250738585072014e-308
2019-05-14T00:16:59.248Z,2.2250738585072014e-308
2019-05-14T00:17:21.426Z,2.2250738585072014e-308
2019-05-14T00:17:41.521Z,2.2250738585072014e-308
2019-05-14T00:18:02.049Z,2.2250738585072014e-308
2019-05-14T00:18:22.195Z,2.2250738585072014e-308
2019-05-14T00:18:39.183Z,2.2250738585072014e-308
2019-05-14T00:19:01.634Z,2.2250738585072014e-308
2019-05-14T00:19:21.447Z,2.2250738585072014e-308
2019-05-14T00:19:41.572Z,2.2250738585072014e-308
2019-05-14T00:20:13.551Z,2.2250738585072014e-308
2019-05-14T00:20:22.316Z,2.2250738585072014e-308
2019-05-14T00:20:41.910Z,2.2250738585072014e-308
2019-05-14T00:20:58.536Z,2.2250738585072014e-308
2019-05-14T00:21:18.547Z,2.2250738585072014e-308
2019-05-14T00:21:38.534Z,2.2250738585072014e-308
2019-05-14T00:22:02.026Z,2.2250738585072014e-308
2019-05-14T00:22:21.779Z,2.2250738585072014e-308
2019-05-14T00:22:41.611Z,2.2250738585072014e-308
2019-05-14T00:23:01.233Z,2.2250738585072014e-308
2019-05-14T00:23:21.452Z,2.2250738585072014e-308
2019-05-14T00:23:42.026Z,2.2250738585072014e-308
2019-05-14T00:24:01.813Z,2.2250738585072014e-308
2019-05-14T00:24:21.680Z,2.2250738585072014e-308
2019-05-14T00:24:41.524Z,2.2250738585072014e-308
2019-05-14T00:25:00.806Z,2.2250738585072014e-308
2019-05-14T00:25:22.006Z,2.2250738585072014e-308
2019-05-14T00:25:38.528Z,2.2250738585072014e-308
2019-05-14T00:26:01.666Z,2.2250738585072014e-308
2019-05-14T00:26:21.443Z,2.2250738585072014e-308
2019-05-14T00:26:42.536Z,2.2250738585072014e-308
2019-05-14T00:26:58.549Z,2.2250738585072014e-308
2019-05-14T00:27:18.547Z,2.2250738585072014e-308
2019-05-14T00:27:41.250Z,2.2250738585072014e-308
2019-05-14T00:28:01.158Z,2.2250738585072014e-308
2019-05-14T00:28:21.087Z,2.2250738585072014e-308
2019-05-14T00:28:42.185Z,2.2250738585072014e-308
2019-05-14T00:29:01.209Z,2.2250738585072014e-308
2019-05-14T00:29:21.764Z,2.2250738585072014e-308
2019-05-14T00:29:41.664Z,2.2250738585072014e-308
2019-05-14T00:30:02.405Z,2.2250738585072014e-308
2019-05-14T00:30:18.540Z,2.2250738585072014e-308
2019-05-14T00:30:38.579Z,2.2250738585072014e-308
2019-05-14T00:31:02.612Z,2.2250738585072014e-308
2019-05-14T00:31:21.160Z,2.2250738585072014e-308
2019-05-14T00:31:38.546Z,2.2250738585072014e-308
2019-05-14T00:31:58.544Z,2.2250738585072014e-308
2019-05-14T00:32:18.544Z,2.2250738585072014e-308
2019-05-14T00:32:41.348Z,2.2250738585072014e-308
2019-05-14T00:32:58.564Z,2.2250738585072014e-308
2019-05-14T00:33:18.517Z,2.2250738585072014e-308
2019-05-14T00:33:41.867Z,2.2250738585072014e-308
2019-05-14T00:34:01.720Z,2.2250738585072014e-308
2019-05-14T00:34:18.523Z,2.2250738585072014e-308
2019-05-14T00:34:42.388Z,2.2250738585072014e-308
2019-05-14T00:34:58.558Z,2.2250738585072014e-308
2019-05-14T00:35:18.548Z,2.2250738585072014e-308
2019-05-14T00:35:41.318Z,2.2250738585072014e-308
2019-05-14T00:36:02.022Z,2.2250738585072014e-308
2019-05-14T00:36:21.470Z,2.2250738585072014e-308
2019-05-14T00:36:41.601Z,2.2250738585072014e-308
2019-05-14T00:36:58.550Z,2.2250738585072014e-308
2019-05-14T00:37:21.676Z,2.2250738585072014e-308
2019-05-14T00:37:41.262Z,2.2250738585072014e-308
2019-05-14T00:38:01.261Z,2.2250738585072014e-308
2019-05-14T00:38:22.499Z,2.2250738585072014e-308
2019-05-14T00:38:41.927Z,2.2250738585072014e-308
2019-05-14T00:39:01.769Z,2.2250738585072014e-308
2019-05-14T00:39:18.540Z,2.2250738585072014e-308
2019-05-14T00:39:41.535Z,2.2250738585072014e-308
2019-05-14T00:40:01.128Z,2.2250738585072014e-308
2019-05-14T00:40:21.528Z,2.2250738585072014e-308
2019-05-14T00:40:41.932Z,2.2250738585072014e-308
2019-05-14T00:41:01.906Z,2.2250738585072014e-308
2019-05-14T00:41:18.535Z,2.2250738585072014e-308
2019-05-14T00:41:38.534Z,2.2250738585072014e-308
2019-05-14T00:42:01.740Z,2.2250738585072014e-308
2019-05-14T00:42:21.377Z,2.2250738585072014e-308
2019-05-14T00:42:41.377Z,2.2250738585072014e-308
2019-05-14T00:42:58.538Z,2.2250738585072014e-308
2019-05-14T00:43:21.634Z,2.2250738585072014e-308
2019-05-14T00:43:38.540Z,2.2250738585072014e-308
2019-05-14T00:44:01.898Z,2.2250738585072014e-308
2019-05-14T00:44:21.363Z,2.2250738585072014e-308
2019-05-14T00:44:51.357Z,2.2250738585072014e-308
2019-05-14T00:44:58.522Z,2.2250738585072014e-308
2019-05-14T00:45:21.786Z,2.2250738585072014e-308
2019-05-14T00:45:38.556Z,2.2250738585072014e-308
2019-05-14T00:45:58.537Z,2.2250738585072014e-308
2019-05-14T00:46:21.127Z,2.2250738585072014e-308
2019-05-14T00:46:41.063Z,2.2250738585072014e-308
2019-05-14T00:47:02.126Z,2.2250738585072014e-308
2019-05-14T00:47:21.663Z,2.2250738585072014e-308
2019-05-14T00:47:41.739Z,2.2250738585072014e-308
2019-05-14T00:48:01.287Z,2.2250738585072014e-308
2019-05-14T00:48:19.392Z,2.2250738585072014e-308
2019-05-14T00:48:41.996Z,2.2250738585072014e-308
2019-05-14T00:49:01.768Z,2.2250738585072014e-308
2019-05-14T00:49:21.153Z,2.2250738585072014e-308
2019-05-14T00:49:42.202Z,2.2250738585072014e-308
2019-05-14T00:49:59.287Z,2.2250738585072014e-308
2019-05-14T00:50:21.569Z,2.2250738585072014e-308
2019-05-14T00:50:42.078Z,2.2250738585072014e-308
2019-05-14T00:51:02.126Z,2.2250738585072014e-308
2019-05-14T00:51:18.539Z,2.2250738585072014e-308
2019-05-14T00:51:38.554Z,2.2250738585072014e-308
2019-05-14T00:52:02.216Z,2.2250738585072014e-308
2019-05-14T00:52:19.373Z,2.2250738585072014e-308
2019-05-14T00:52:43.205Z,2.2250738585072014e-308
2019-05-14T00:53:01.867Z,2.2250738585072014e-308
2019-05-14T00:53:18.551Z,2.2250738585072014e-308
2019-05-14T00:53:41.936Z,2.2250738585072014e-308
2019-05-14T00:54:01.530Z,2.2250738585072014e-308
2019-05-14T00:54:21.499Z,2.2250738585072014e-308
2019-05-14T00:54:38.517Z,2.2250738585072014e-308
2019-05-14T00:55:01.090Z,2.2250738585072014e-308
2019-05-14T00:55:22.287Z,2.2250738585072014e-308
2019-05-14T00:55:39.399Z,2.2250738585072014e-308
2019-05-14T00:55:58.523Z,2.2250738585072014e-308
2019-05-14T00:56:21.564Z,2.2250738585072014e-308
2019-05-14T00:56:41.598Z,2.2250738585072014e-308
2019-05-14T00:57:01.393Z,2.2250738585072014e-308
2019-05-14T00:57:21.106Z,2.2250738585072014e-308
2019-05-14T00:57:38.552Z,2.2250738585072014e-308
2019-05-14T00:58:02.295Z,2.2250738585072014e-308
2019-05-14T00:58:21.564Z,2.2250738585072014e-308
2019-05-14T00:58:41.422Z,2.2250738585072014e-308
2019-05-14T00:59:01.365Z,2.2250738585072014e-308
2019-05-14T00:59:21.600Z,2.2250738585072014e-308
2019-05-14T00:59:41.415Z,2.2250738585072014e-308
2019-05-14T01:00:01.056Z,2.2250738585072014e-308
2019-05-14T01:00:21.995Z,2.2250738585072014e-308
2019-05-14T01:00:41.786Z,2.2250738585072014e-308
2019-05-14T01:01:01.500Z,2.2250738585072014e-308
2019-05-14T01:01:21.317Z,2.2250738585072014e-308
2019-05-14T01:01:39.415Z,2.2250738585072014e-308
2019-05-14T01:02:02.265Z,2.2250738585072014e-308
2019-05-14T01:02:21.723Z,2.2250738585072014e-308
2019-05-14T01:02:41.510Z,2.2250738585072014e-308
2019-05-14T01:02:59.271Z,2.2250738585072014e-308
2019-05-14T01:03:21.698Z,2.2250738585072014e-308
2019-05-14T01:03:41.000Z,2.2250738585072014e-308
2019-05-14T01:03:58.518Z,2.2250738585072014e-308
2019-05-14T01:04:22.098Z,2.2250738585072014e-308
2019-05-14T01:04:42.494Z,2.2250738585072014e-308
2019-05-14T01:05:01.821Z,2.2250738585072014e-308
2019-05-14T01:05:21.357Z,2.2250738585072014e-308
2019-05-14T01:05:38.550Z,2.2250738585072014e-308
2019-05-14T01:06:02.189Z,2.2250738585072014e-308
2019-05-14T01:06:21.839Z,2.2250738585072014e-308
2019-05-14T01:06:42.019Z,2.2250738585072014e-308
2019-05-14T01:07:01.528Z,2.2250738585072014e-308
2019-05-14T01:07:21.130Z,2.2250738585072014e-308
2019-05-14T01:07:39.247Z,2.2250738585072014e-308
2019-05-14T01:08:01.480Z,2.2250738585072014e-308
2019-05-14T01:08:21.318Z,2.2250738585072014e-308
2019-05-14T01:08:41.309Z,2.2250738585072014e-308
2019-05-14T01:09:01.282Z,2.2250738585072014e-308
2019-05-14T01:09:21.774Z,2.2250738585072014e-308
2019-05-14T01:09:38.531Z,2.2250738585072014e-308
2019-05-14T01:10:01.281Z,2.2250738585072014e-308
2019-05-14T01:10:19.286Z,2.2250738585072014e-308
2019-05-14T01:10:41.599Z,2.2250738585072014e-308
2019-05-14T01:10:58.530Z,2.2250738585072014e-308
2019-05-14T01:11:22.092Z,2.2250738585072014e-308
2019-05-14T01:11:38.537Z,2.2250738585072014e-308
2019-05-14T01:11:58.539Z,2.2250738585072014e-308
2019-05-14T01:12:21.386Z,2.2250738585072014e-308
2019-05-14T01:12:41.504Z,2.2250738585072014e-308
2019-05-14T01:12:58.537Z,2.2250738585072014e-308
2019-05-14T01:13:19.250Z,2.2250738585072014e-308
2019-05-14T01:13:38.564Z,2.2250738585072014e-308
2019-05-14T01:13:58.530Z,2.2250738585072014e-308
2019-05-14T01:14:21.090Z,2.2250738585072014e-308
2019-05-14T01:14:38.516Z,2.2250738585072014e-308
2019-05-14T01:15:14.499Z,2.2250738585072014e-308
2019-05-14T01:15:18.521Z,2.2250738585072014e-308
2019-05-14T01:15:41.437Z,2.2250738585072014e-308
2019-05-14T01:15:58.537Z,2.2250738585072014e-308
2019-05-14T01:16:19.747Z,2.2250738585072014e-308
2019-05-14T01:16:38.544Z,2.2250738585072014e-308
2019-05-14T01:17:01.966Z,2.2250738585072014e-308
2019-05-14T01:17:18.550Z,2.2250738585072014e-308
2019-05-14T01:17:42.126Z,2.2250738585072014e-308
2019-05-14T01:17:59.264Z,2.2250738585072014e-308
2019-05-14T01:18:18.525Z,2.2250738585072014e-308
2019-05-14T01:18:41.423Z,2.2250738585072014e-308
2019-05-14T01:18:58.527Z,2.2250738585072014e-308
2019-05-14T01:19:21.374Z,2.2250738585072014e-308
2019-05-14T01:19:42.398Z,2.2250738585072014e-308
2019-05-14T01:19:58.565Z,2.2250738585072014e-308
2019-05-14T01:20:18.534Z,2.2250738585072014e-308
2019-05-14T01:20:41.142Z,2.2250738585072014e-308
2019-05-14T01:21:01.252Z,2.2250738585072014e-308
2019-05-14T01:21:21.906Z,2.2250738585072014e-308
2019-05-14T01:21:41.706Z,2.2250738585072014e-308
2019-05-14T01:21:58.537Z,2.2250738585072014e-308
2019-05-14T01:22:21.211Z,2.2250738585072014e-308
2019-05-14T01:22:39.373Z,2.2250738585072014e-308
2019-05-14T01:23:02.186Z,2.2250738585072014e-308
2019-05-14T01:23:21.608Z,2.2250738585072014e-308
2019-05-14T01:23:41.333Z,2.2250738585072014e-308
2019-05-14T01:23:59.281Z,2.2250738585072014e-308
2019-05-14T01:24:21.423Z,2.2250738585072014e-308
2019-05-14T01:24:41.619Z,2.2250738585072014e-308
2019-05-14T01:25:01.553Z,2.2250738585072014e-308
2019-05-14T01:25:23.270Z,2.2250738585072014e-308
2019-05-14T01:25:39.209Z,2.2250738585072014e-308
2019-05-14T01:25:58.516Z,2.2250738585072014e-308
2019-05-14T01:26:21.731Z,2.2250738585072014e-308
2019-05-14T01:26:41.569Z,2.2250738585072014e-308
2019-05-14T01:27:01.582Z,2.2250738585072014e-308
2019-05-14T01:27:18.537Z,2.2250738585072014e-308
2019-05-14T01:27:38.537Z,2.2250738585072014e-308
2019-05-14T01:28:01.649Z,2.2250738585072014e-308
2019-05-14T01:28:21.412Z,2.2250738585072014e-308
2019-05-14T01:28:41.605Z,2.2250738585072014e-308
2019-05-14T01:29:01.374Z,2.2250738585072014e-308
2019-05-14T01:29:19.278Z,2.2250738585072014e-308
2019-05-14T01:29:38.563Z,2.2250738585072014e-308
2019-05-14T01:30:01.875Z,2.2250738585072014e-308
2019-05-14T01:30:18.512Z,2.2250738585072014e-308
2019-05-14T01:30:41.090Z,2.2250738585072014e-308
2019-05-14T01:31:01.124Z,2.2250738585072014e-308
2019-05-14T01:31:21.857Z,2.2250738585072014e-308
2019-05-14T01:31:41.730Z,2.2250738585072014e-308
2019-05-14T01:32:00.912Z,2.2250738585072014e-308
2019-05-14T01:32:18.543Z,2.2250738585072014e-308
2019-05-14T01:32:41.992Z,2.2250738585072014e-308
2019-05-14T01:33:01.704Z,2.2250738585072014e-308
2019-05-14T01:33:21.195Z,2.2250738585072014e-308
2019-05-14T01:33:41.097Z,2.2250738585072014e-308
2019-05-14T01:33:58.561Z,2.2250738585072014e-308
2019-05-14T01:34:18.518Z,2.2250738585072014e-308
2019-05-14T01:34:41.874Z,2.2250738585072014e-308
2019-05-14T01:35:01.337Z,2.2250738585072014e-308
2019-05-14T01:35:22.230Z,2.2250738585072014e-308
2019-05-14T01:35:39.246Z,2.2250738585072014e-308
2019-05-14T01:36:02.000Z,2.2250738585072014e-308
2019-05-14T01:36:21.459Z,2.2250738585072014e-308
2019-05-14T01:36:41.325Z,2.2250738585072014e-308
2019-05-14T01:37:02.400Z,2.2250738585072014e-308
2019-05-14T01:37:21.822Z,2.2250738585072014e-308
2019-05-14T01:37:38.546Z,2.2250738585072014e-308
2019-05-14T01:37:58.541Z,2.2250738585072014e-308
2019-05-14T01:38:22.080Z,2.2250738585072014e-308
2019-05-14T01:38:41.821Z,2.2250738585072014e-308
2019-05-14T01:38:58.550Z,2.2250738585072014e-308
2019-05-14T01:39:18.539Z,2.2250738585072014e-308
2019-05-14T01:39:41.701Z,2.2250738585072014e-308
2019-05-14T01:40:01.126Z,2.2250738585072014e-308
2019-05-14T01:40:21.814Z,2.2250738585072014e-308
2019-05-14T01:40:41.915Z,2.2250738585072014e-308
2019-05-14T01:40:58.538Z,2.2250738585072014e-308
2019-05-14T01:41:22.327Z,2.2250738585072014e-308
2019-05-14T01:41:38.545Z,2.2250738585072014e-308
2019-05-14T01:42:02.396Z,2.2250738585072014e-308
2019-05-14T01:42:21.450Z,2.2250738585072014e-308
2019-05-14T01:42:41.491Z,2.2250738585072014e-308
2019-05-14T01:43:02.545Z,2.2250738585072014e-308
2019-05-14T01:43:22.008Z,2.2250738585072014e-308
2019-05-14T01:43:41.878Z,2.2250738585072014e-308
2019-05-14T01:43:58.544Z,2.2250738585072014e-308
2019-05-14T01:44:21.322Z,2.2250738585072014e-308
2019-05-14T01:44:41.230Z,2.2250738585072014e-308
2019-05-14T01:45:02.393Z,2.2250738585072014e-308
2019-05-14T01:45:31.066Z,2.2250738585072014e-308
2019-05-14T01:45:41.663Z,2.2250738585072014e-308
2019-05-14T01:45:58.544Z,2.2250738585072014e-308
2019-05-14T01:46:20.979Z,2.2250738585072014e-308
2019-05-14T01:46:39.253Z,2.2250738585072014e-308
2019-05-14T01:46:59.213Z,2.2250738585072014e-308
2019-05-14T01:47:18.516Z,2.2250738585072014e-308
2019-05-14T01:47:41.381Z,2.2250738585072014e-308
2019-05-14T01:47:58.535Z,2.2250738585072014e-308
2019-05-14T01:48:18.538Z,2.2250738585072014e-308
2019-05-14T01:48:41.711Z,2.2250738585072014e-308
2019-05-14T01:49:01.348Z,2.2250738585072014e-308
2019-05-14T01:49:22.092Z,2.2250738585072014e-308
2019-05-14T01:49:42.625Z,2.2250738585072014e-308
2019-05-14T01:50:02.066Z,2.2250738585072014e-308
2019-05-14T01:50:21.505Z,2.2250738585072014e-308
2019-05-14T01:50:38.546Z,2.2250738585072014e-308
2019-05-14T01:51:01.480Z,2.2250738585072014e-308
2019-05-14T01:51:19.386Z,2.2250738585072014e-308
2019-05-14T01:51:42.103Z,2.2250738585072014e-308
2019-05-14T01:52:01.728Z,2.2250738585072014e-308
2019-05-14T01:52:21.734Z,2.2250738585072014e-308
2019-05-14T01:52:41.458Z,2.2250738585072014e-308
2019-05-14T01:53:00.692Z,2.2250738585072014e-308
2019-05-14T01:53:19.239Z,2.2250738585072014e-308
2019-05-14T01:53:41.471Z,2.2250738585072014e-308
2019-05-14T01:54:01.407Z,2.2250738585072014e-308
2019-05-14T01:54:21.148Z,2.2250738585072014e-308
2019-05-14T01:54:42.358Z,2.2250738585072014e-308
2019-05-14T01:55:02.108Z,2.2250738585072014e-308
2019-05-14T01:55:19.286Z,2.2250738585072014e-308
2019-05-14T01:55:41.431Z,2.2250738585072014e-308
2019-05-14T01:56:01.526Z,2.2250738585072014e-308
2019-05-14T01:56:21.310Z,2.2250738585072014e-308
2019-05-14T01:56:42.175Z,2.2250738585072014e-308
2019-05-14T01:56:58.562Z,2.2250738585072014e-308
2019-05-14T01:57:21.876Z,2.2250738585072014e-308
2019-05-14T01:57:38.545Z,2.2250738585072014e-308
2019-05-14T01:57:59.246Z,2.2250738585072014e-308
2019-05-14T01:58:21.868Z,2.2250738585072014e-308
2019-05-14T01:58:41.658Z,2.2250738585072014e-308
2019-05-14T01:59:01.631Z,2.2250738585072014e-308
2019-05-14T01:59:18.560Z,2.2250738585072014e-308
2019-05-14T01:59:38.534Z,2.2250738585072014e-308
2019-05-14T02:00:02.087Z,2.2250738585072014e-308
2019-05-14T02:00:21.992Z,2.2250738585072014e-308
2019-05-14T02:00:38.533Z,2.2250738585072014e-308
2019-05-14T02:00:58.549Z,2.2250738585072014e-308
2019-05-14T02:01:21.817Z,2.2250738585072014e-308
2019-05-14T02:01:41.093Z,2.2250738585072014e-308
2019-05-14T02:02:01.764Z,2.2250738585072014e-308
2019-05-14T02:02:21.997Z,2.2250738585072014e-308
2019-05-14T02:02:41.711Z,2.2250738585072014e-308
2019-05-14T02:03:01.751Z,2.2250738585072014e-308
2019-05-14T02:03:18.547Z,2.2250738585072014e-308
2019-05-14T02:03:41.055Z,2.2250738585072014e-308
2019-05-14T02:03:59.256Z,2.2250738585072014e-308
2019-05-14T02:04:21.727Z,2.2250738585072014e-308
2019-05-14T02:04:38.523Z,2.2250738585072014e-308
2019-05-14T02:05:01.950Z,2.2250738585072014e-308
2019-05-14T02:05:21.675Z,2.2250738585072014e-308
2019-05-14T02:05:41.457Z,2.2250738585072014e-308
2019-05-14T02:06:01.182Z,2.2250738585072014e-308
2019-05-14T02:06:21.240Z,2.2250738585072014e-308
2019-05-14T02:06:41.263Z,2.2250738585072014e-308
2019-05-14T02:07:02.188Z,2.2250738585072014e-308
2019-05-14T02:07:19.275Z,2.2250738585072014e-308
2019-05-14T02:07:41.975Z,2.2250738585072014e-308
2019-05-14T02:08:01.292Z,2.2250738585072014e-308
2019-05-14T02:08:21.402Z,2.2250738585072014e-308
2019-05-14T02:08:41.329Z,2.2250738585072014e-308
2019-05-14T02:08:59.245Z,2.2250738585072014e-308
2019-05-14T02:09:18.513Z,2.2250738585072014e-308
2019-05-14T02:09:41.939Z,2.2250738585072014e-308
2019-05-14T02:10:01.102Z,2.2250738585072014e-308
2019-05-14T02:10:22.058Z,2.2250738585072014e-308
2019-05-14T02:10:38.541Z,2.2250738585072014e-308
2019-05-14T02:11:01.353Z,2.2250738585072014e-308
2019-05-14T02:11:18.547Z,2.2250738585072014e-308
2019-05-14T02:11:41.464Z,2.2250738585072014e-308
2019-05-14T02:12:02.105Z,2.2250738585072014e-308
2019-05-14T02:12:22.308Z,2.2250738585072014e-308
2019-05-14T02:12:42.295Z,2.2250738585072014e-308
2019-05-14T02:12:58.543Z,2.2250738585072014e-308
2019-05-14T02:13:21.055Z,2.2250738585072014e-308
2019-05-14T02:13:41.364Z,2.2250738585072014e-308
2019-05-14T02:13:58.530Z,2.2250738585072014e-308
2019-05-14T02:14:18.551Z,2.2250738585072014e-308
2019-05-14T02:14:42.340Z,2.2250738585072014e-308
2019-05-14T02:15:01.706Z,2.2250738585072014e-308
2019-05-14T02:15:21.221Z,2.2250738585072014e-308
2019-05-14T02:15:44.267Z,2.2250738585072014e-308
2019-05-14T02:16:01.263Z,2.2250738585072014e-308
2019-05-14T02:16:21.886Z,2.2250738585072014e-308
2019-05-14T02:16:38.537Z,2.2250738585072014e-308
2019-05-14T02:17:01.296Z,2.2250738585072014e-308
2019-05-14T02:17:18.531Z,2.2250738585072014e-308
2019-05-14T02:17:41.331Z,2.2250738585072014e-308
2019-05-14T02:18:02.256Z,2.2250738585072014e-308
2019-05-14T02:18:18.533Z,2.2250738585072014e-308
2019-05-14T02:18:41.434Z,2.2250738585072014e-308
2019-05-14T02:19:01.335Z,2.2250738585072014e-308
2019-05-14T02:19:22.133Z,2.2250738585072014e-308
2019-05-14T02:19:42.275Z,2.2250738585072014e-308
2019-05-14T02:19:59.194Z,2.2250738585072014e-308
2019-05-14T02:20:21.528Z,2.2250738585072014e-308
2019-05-14T02:20:41.304Z,2.2250738585072014e-308
2019-05-14T02:21:01.521Z,2.2250738585072014e-308
2019-05-14T02:21:20.151Z,2.2250738585072014e-308
2019-05-14T02:21:39.254Z,2.2250738585072014e-308
2019-05-14T02:22:01.501Z,2.2250738585072014e-308
2019-05-14T02:22:21.616Z,2.2250738585072014e-308
2019-05-14T02:22:41.623Z,2.2250738585072014e-308
2019-05-14T02:23:01.472Z,2.2250738585072014e-308
2019-05-14T02:23:22.087Z,2.2250738585072014e-308
2019-05-14T02:23:39.251Z,2.2250738585072014e-308
2019-05-14T02:23:58.526Z,2.2250738585072014e-308
2019-05-14T02:24:21.769Z,2.2250738585072014e-308
2019-05-14T02:24:41.671Z,2.2250738585072014e-308
2019-05-14T02:24:58.514Z,2.2250738585072014e-308
2019-05-14T02:25:21.624Z,2.2250738585072014e-308
2019-05-14T02:25:38.535Z,2.2250738585072014e-308
2019-05-14T02:26:02.450Z,2.2250738585072014e-308
2019-05-14T02:26:18.584Z,2.2250738585072014e-308
2019-05-14T02:26:38.526Z,2.2250738585072014e-308
2019-05-14T02:27:01.827Z,2.2250738585072014e-308
2019-05-14T02:27:21.368Z,2.2250738585072014e-308
2019-05-14T02:27:38.543Z,2.2250738585072014e-308
2019-05-14T02:28:01.325Z,2.2250738585072014e-308
2019-05-14T02:28:18.547Z,2.2250738585072014e-308
2019-05-14T02:28:41.998Z,2.2250738585072014e-308
2019-05-14T02:28:59.250Z,2.2250738585072014e-308
2019-05-14T02:29:21.399Z,2.2250738585072014e-308
2019-05-14T02:29:41.566Z,2.2250738585072014e-308
2019-05-14T02:30:01.656Z,2.2250738585072014e-308
2019-05-14T02:30:22.823Z,2.2250738585072014e-308
2019-05-14T02:31:03.050Z,2.2250738585072014e-308
2019-05-14T02:31:04.472Z,2.2250738585072014e-308
2019-05-14T02:31:20.129Z,2.2250738585072014e-308
2019-05-14T02:31:39.214Z,2.2250738585072014e-308
2019-05-14T02:32:00.347Z,2.2250738585072014e-308
2019-05-14T02:32:20.132Z,2.2250738585072014e-308
2019-05-14T02:32:40.356Z,2.2250738585072014e-308
2019-05-14T02:32:59.550Z,2.2250738585072014e-308
2019-05-14T02:33:19.545Z,2.2250738585072014e-308
2019-05-14T02:33:40.108Z,2.2250738585072014e-308
2019-05-14T02:33:59.148Z,2.2250738585072014e-308
2019-05-14T02:34:20.185Z,2.2250738585072014e-308
2019-05-14T02:34:39.991Z,2.2250738585072014e-308
2019-05-14T02:34:59.270Z,2.2250738585072014e-308
2019-05-14T02:35:20.165Z,2.2250738585072014e-308
2019-05-14T02:35:40.208Z,2.2250738585072014e-308
2019-05-14T02:36:00.392Z,2.2250738585072014e-308
2019-05-14T02:36:19.412Z,2.2250738585072014e-308
2019-05-14T02:36:39.949Z,2.2250738585072014e-308
2019-05-14T02:37:00.337Z,2.2250738585072014e-308
2019-05-14T02:37:20.256Z,2.2250738585072014e-308
2019-05-14T02:37:40.027Z,2.2250738585072014e-308
2019-05-14T02:38:00.273Z,2.2250738585072014e-308
2019-05-14T02:38:19.363Z,2.2250738585072014e-308
2019-05-14T02:38:38.981Z,2.2250738585072014e-308
2019-05-14T02:39:00.625Z,2.2250738585072014e-308
2019-05-14T02:39:19.738Z,2.2250738585072014e-308
2019-05-14T02:39:40.873Z,2.2250738585072014e-308
2019-05-14T02:40:00.550Z,2.2250738585072014e-308
2019-05-14T02:40:20.484Z,2.2250738585072014e-308
2019-05-14T02:40:40.504Z,2.2250738585072014e-308
2019-05-14T02:40:59.886Z,2.2250738585072014e-308
2019-05-14T02:41:20.230Z,2.2250738585072014e-308
2019-05-14T02:41:39.230Z,2.2250738585072014e-308
2019-05-14T02:42:00.609Z,2.2250738585072014e-308
2019-05-14T02:42:20.506Z,2.2250738585072014e-308
2019-05-14T02:42:40.597Z,2.2250738585072014e-308
2019-05-14T02:42:59.516Z,2.2250738585072014e-308